Absecon City, New Jersey
Current Conditions -  °F | °C
As of 11:54 PM on Monday 22 Dec 2014 (Local Time) from KACY Reporting Station
Overcast Overcast  
Wind Chill:   Ceiling: 5500
Heat Index:   Visibility: 10mi
Dew Point:   Wind: 8mph
Humidity: 93%   Direction: 50°NE
Pressure: 30.09"   Gusts: NA
Location:  39.4315°N, 74.5003°W
Report Text: KACY 230454Z 05007KT 10SM OVC055 08/07 A3009 RMK AO2 SLP189 T00780067 400781061
Loading
Personal Weather Stations






























Interactive Weather Map New forecast layout! Learn more

10-Day Weather Forecast

Advertisements
Track Severe Weather on mobile